createdAt,value
2023-06-02T00:02:13.123Z,16.30
2023-06-02T00:04:41.823Z,16.30
2023-06-02T00:07:09.542Z,16.30
2023-06-02T00:09:42.740Z,16.30
2023-06-02T00:12:11.785Z,16.20
2023-06-02T00:14:39.945Z,16.20
2023-06-02T00:17:07.206Z,16.10
2023-06-02T00:19:34.188Z,16.00
2023-06-02T00:22:04.203Z,16.00
2023-06-02T00:24:31.475Z,16.00
2023-06-02T00:26:58.651Z,15.90
2023-06-02T00:29:26.286Z,15.90
2023-06-02T00:31:53.288Z,15.80
2023-06-02T00:34:20.345Z,15.80
2023-06-02T00:36:47.310Z,15.70
2023-06-02T00:39:16.369Z,15.70
2023-06-02T00:41:44.413Z,15.70
2023-06-02T00:44:11.342Z,15.60
2023-06-02T00:46:38.292Z,15.60
2023-06-02T00:49:05.342Z,15.70
2023-06-02T00:51:32.941Z,15.40
2023-06-02T00:54:00.198Z,15.50
2023-06-02T00:56:27.135Z,15.40
2023-06-02T00:58:54.952Z,15.40
2023-06-02T01:01:22.756Z,15.40
2023-06-02T01:03:51.440Z,15.40
2023-06-02T01:06:24.534Z,15.10
2023-06-02T01:08:52.679Z,15.20
2023-06-02T01:11:20.107Z,15.10
2023-06-02T01:13:49.752Z,15.10
2023-06-02T01:16:17.105Z,15.00
2023-06-02T01:18:46.833Z,14.90
2023-06-02T01:21:24.211Z,14.80
2023-06-02T01:23:55.693Z,14.80
2023-06-02T01:26:22.569Z,14.90
2023-06-02T01:28:49.714Z,14.80
2023-06-02T01:31:21.504Z,14.70
2023-06-02T01:34:09.721Z,14.70
2023-06-02T01:36:40.151Z,14.60
2023-06-02T01:39:10.559Z,14.60
2023-06-02T01:41:44.107Z,14.50
2023-06-02T01:44:11.353Z,14.40
2023-06-02T01:46:40.988Z,14.40
2023-06-02T01:49:17.830Z,14.30
2023-06-02T01:51:47.851Z,14.30
2023-06-02T01:54:16.449Z,14.30
2023-06-02T01:56:43.345Z,14.30
2023-06-02T01:59:10.470Z,14.30
2023-06-02T02:01:41.810Z,14.30
2023-06-02T02:04:08.805Z,14.30
2023-06-02T02:06:35.831Z,14.30
2023-06-02T02:09:04.904Z,14.50
2023-06-02T02:11:31.720Z,14.30
2023-06-02T02:13:58.544Z,14.20
2023-06-02T02:16:25.758Z,14.30
2023-06-02T02:18:54.069Z,14.20
2023-06-02T02:21:21.761Z,14.30
2023-06-02T02:23:49.027Z,14.10
2023-06-02T02:26:15.957Z,14.10
2023-06-02T02:28:43.333Z,14.00
2023-06-02T02:31:10.351Z,14.10
2023-06-02T02:33:38.103Z,14.10
2023-06-02T02:36:05.586Z,14.00
2023-06-02T02:38:32.673Z,14.00
2023-06-02T02:41:00.892Z,14.00
2023-06-02T02:43:28.113Z,13.90
2023-06-02T02:45:55.020Z,13.90
2023-06-02T02:48:22.120Z,13.90
2023-06-02T02:50:49.183Z,13.90
2023-06-02T02:53:17.452Z,13.90
2023-06-02T02:55:46.004Z,13.90
2023-06-02T02:58:14.196Z,13.60
2023-06-02T03:00:41.054Z,13.70
2023-06-02T03:03:08.320Z,13.60
2023-06-02T03:05:35.975Z,13.50
2023-06-02T03:08:06.203Z,13.50
2023-06-02T03:10:33.170Z,13.60
2023-06-02T03:13:00.392Z,13.50
2023-06-02T03:15:28.551Z,13.60
2023-06-02T03:17:58.373Z,13.60
2023-06-02T03:20:26.790Z,13.50
2023-06-02T03:22:54.204Z,13.40
2023-06-02T03:25:22.000Z,13.40
2023-06-02T03:27:53.029Z,13.30
2023-06-02T03:30:22.104Z,13.40
2023-06-02T03:32:53.862Z,13.40
2023-06-02T03:35:21.353Z,13.30
2023-06-02T03:37:48.306Z,13.20
2023-06-02T03:40:15.883Z,13.40
2023-06-02T03:42:42.847Z,13.20
2023-06-02T03:45:11.025Z,13.20
2023-06-02T03:47:39.045Z,13.20
2023-06-02T03:50:06.560Z,13.10
2023-06-02T03:52:33.636Z,13.10
2023-06-02T03:55:01.476Z,13.20
2023-06-02T03:57:28.864Z,13.10
2023-06-02T03:59:57.223Z,13.10
2023-06-02T04:02:24.321Z,13.00
2023-06-02T04:04:51.584Z,12.90
2023-06-02T04:07:19.664Z,12.90
2023-06-02T04:09:46.589Z,12.90
2023-06-02T04:12:14.767Z,13.00
2023-06-02T04:14:41.966Z,12.90
2023-06-02T04:17:08.937Z,12.90
2023-06-02T04:19:36.116Z,12.90
2023-06-02T04:22:05.041Z,13.00
2023-06-02T04:24:33.168Z,12.90
2023-06-02T04:27:00.780Z,12.90
2023-06-02T04:29:30.215Z,12.90
2023-06-02T04:31:58.040Z,12.90
2023-06-02T04:34:29.254Z,12.80
2023-06-02T04:36:56.320Z,12.80
2023-06-02T04:39:24.379Z,12.80
2023-06-02T04:41:52.026Z,12.80
2023-06-02T04:44:20.518Z,12.70
2023-06-02T04:46:49.381Z,12.80
2023-06-02T04:49:16.895Z,13.10
2023-06-02T04:51:45.152Z,13.20
2023-06-02T04:54:12.636Z,12.80
2023-06-02T04:56:40.265Z,12.80
2023-06-02T04:59:12.782Z,12.60
2023-06-02T05:01:40.838Z,12.70
2023-06-02T05:04:08.373Z,12.70
2023-06-02T05:06:35.978Z,12.70
2023-06-02T05:09:05.664Z,12.60
2023-06-02T05:11:34.143Z,12.60
2023-06-02T05:14:03.368Z,12.80
2023-06-02T05:16:32.186Z,12.80
2023-06-02T05:18:59.539Z,13.10
2023-06-02T05:21:27.061Z,13.10
2023-06-02T05:23:54.242Z,13.10
2023-06-02T05:26:21.258Z,13.10
2023-06-02T05:28:51.374Z,12.90
2023-06-02T05:31:18.970Z,12.90
2023-06-02T05:33:48.235Z,12.90
2023-06-02T05:36:16.139Z,13.00
2023-06-02T05:38:44.837Z,12.90
2023-06-02T05:41:13.339Z,13.00
2023-06-02T05:43:40.714Z,13.00
2023-06-02T05:46:08.426Z,13.00
2023-06-02T05:48:36.443Z,13.10
2023-06-02T05:51:03.792Z,13.00
2023-06-02T05:53:31.237Z,13.10
2023-06-02T05:55:59.213Z,13.20
2023-06-02T05:58:27.181Z,13.10
2023-06-02T06:00:57.226Z,13.20
2023-06-02T06:03:25.602Z,13.30
2023-06-02T06:05:52.951Z,13.40
2023-06-02T06:08:20.151Z,13.40
2023-06-02T06:10:48.061Z,13.40
2023-06-02T06:13:17.732Z,13.60
2023-06-02T06:15:49.161Z,13.90
2023-06-02T06:18:20.776Z,13.80
2023-06-02T06:20:51.771Z,13.90
2023-06-02T06:23:18.941Z,14.00
2023-06-02T06:25:48.091Z,13.80
2023-06-02T06:28:18.089Z,13.90
2023-06-02T06:30:46.849Z,13.90
2023-06-02T06:33:14.443Z,13.90
2023-06-02T06:35:41.491Z,13.90
2023-06-02T06:38:20.592Z,14.10
2023-06-02T06:40:47.996Z,14.00
2023-06-02T06:43:24.269Z,14.00
2023-06-02T06:46:24.718Z,14.00
2023-06-02T06:48:52.927Z,14.20
2023-06-02T06:51:20.290Z,14.40
2023-06-02T06:53:47.797Z,14.30
2023-06-02T06:56:15.120Z,14.70
2023-06-02T06:58:42.654Z,14.60
2023-06-02T07:01:10.295Z,14.70
2023-06-02T07:03:37.870Z,14.70
2023-06-02T07:06:08.952Z,14.60
2023-06-02T07:08:42.195Z,14.70
2023-06-02T07:11:13.274Z,14.60
2023-06-02T07:13:41.725Z,14.50
2023-06-02T07:16:12.068Z,14.60
2023-06-02T07:18:48.217Z,14.80
2023-06-02T07:21:17.894Z,14.80
2023-06-02T07:23:51.299Z,14.90
2023-06-02T07:26:18.862Z,15.00
2023-06-02T07:28:53.453Z,15.00
2023-06-02T07:31:34.083Z,15.00
2023-06-02T07:34:32.838Z,15.00
2023-06-02T07:37:16.837Z,15.00
2023-06-02T07:39:50.249Z,15.10
2023-06-02T07:42:36.403Z,15.20
2023-06-02T07:45:13.106Z,15.10
2023-06-02T07:47:43.355Z,15.20
2023-06-02T07:50:25.695Z,15.10
2023-06-02T07:52:59.193Z,15.10
2023-06-02T07:55:48.328Z,15.20
2023-06-02T07:58:33.473Z,15.10
2023-06-02T08:01:05.494Z,15.20
2023-06-02T08:03:48.415Z,15.30
2023-06-02T08:09:18.446Z,15.30
2023-06-02T08:11:53.280Z,15.40
2023-06-02T08:17:32.175Z,15.50
2023-06-02T08:20:57.427Z,15.60
2023-06-02T08:23:52.278Z,15.70
2023-06-02T08:27:18.999Z,15.70
2023-06-02T08:30:07.152Z,15.80
2023-06-02T08:32:34.427Z,15.80
2023-06-02T08:35:03.948Z,15.80
2023-06-02T08:37:34.816Z,15.90
2023-06-02T08:40:01.869Z,15.90
2023-06-02T08:42:28.717Z,16.00
2023-06-02T08:44:55.593Z,16.10
2023-06-02T08:47:25.136Z,16.10
2023-06-02T08:49:52.147Z,16.20
2023-06-02T08:52:28.524Z,16.20
2023-06-02T08:54:56.994Z,16.30
2023-06-02T08:57:24.170Z,16.30
2023-06-02T08:59:51.485Z,16.20
2023-06-02T09:02:19.978Z,16.40
2023-06-02T09:04:47.162Z,16.30
2023-06-02T09:07:13.987Z,16.50
2023-06-02T09:09:49.046Z,16.60
2023-06-02T09:12:16.726Z,16.70
2023-06-02T09:14:43.673Z,16.70
2023-06-02T09:17:29.167Z,16.70
2023-06-02T09:19:58.226Z,16.70
2023-06-02T09:22:25.216Z,16.60
2023-06-02T09:24:55.414Z,16.70
2023-06-02T09:27:22.470Z,16.80
2023-06-02T09:29:50.774Z,16.80
2023-06-02T09:32:19.728Z,16.80
2023-06-02T09:34:47.047Z,16.90
2023-06-02T09:37:15.556Z,16.90
2023-06-02T09:39:54.228Z,17.10
2023-06-02T09:42:24.380Z,17.20
2023-06-02T09:45:07.907Z,17.20
2023-06-02T09:47:42.830Z,17.10
2023-06-02T09:50:12.888Z,17.20
2023-06-02T09:52:39.912Z,17.20
2023-06-02T09:55:08.647Z,17.30
2023-06-02T09:57:36.170Z,17.30
2023-06-02T10:00:03.478Z,17.30
2023-06-02T10:02:39.366Z,17.30
2023-06-02T10:05:06.594Z,17.40
2023-06-02T10:07:52.818Z,17.40
2023-06-02T10:10:36.591Z,17.40
2023-06-02T10:13:34.257Z,17.40
2023-06-02T10:16:06.268Z,17.40
2023-06-02T10:18:57.654Z,17.50
2023-06-02T10:21:42.023Z,17.60
2023-06-02T10:24:29.230Z,17.60
2023-06-02T10:27:45.602Z,17.60
2023-06-02T10:30:12.571Z,17.70
2023-06-02T10:32:48.843Z,17.70
2023-06-02T10:35:16.317Z,17.80
2023-06-02T10:37:43.757Z,17.90
2023-06-02T10:40:12.048Z,17.90
2023-06-02T10:42:59.850Z,18.00
2023-06-02T10:45:36.048Z,18.10
2023-06-02T10:48:02.963Z,18.00
2023-06-02T10:50:53.133Z,18.10
2023-06-02T10:53:19.962Z,18.10
2023-06-02T10:55:47.818Z,18.20
2023-06-02T10:58:15.348Z,18.30
2023-06-02T11:00:47.322Z,18.40
2023-06-02T11:03:17.380Z,18.40
2023-06-02T11:05:50.948Z,18.40
2023-06-02T11:08:22.458Z,18.50
2023-06-02T11:11:08.106Z,18.60
2023-06-02T11:13:58.930Z,18.60
2023-06-02T11:16:29.355Z,18.70
2023-06-02T11:18:56.179Z,18.70
2023-06-02T11:21:26.375Z,18.80
2023-06-02T11:23:53.593Z,18.70
2023-06-02T11:26:22.311Z,18.60
2023-06-02T11:28:49.204Z,18.70
2023-06-02T11:31:21.185Z,18.90
2023-06-02T11:33:50.231Z,19.10
2023-06-02T11:36:25.806Z,19.20
2023-06-02T11:39:01.651Z,19.10
2023-06-02T11:41:29.009Z,19.10
2023-06-02T11:44:04.960Z,19.10
2023-06-02T11:46:32.092Z,19.10
2023-06-02T11:48:59.052Z,19.10
2023-06-02T11:51:26.219Z,19.20
2023-06-02T11:54:04.288Z,19.10
2023-06-02T11:56:32.308Z,19.10
2023-06-02T11:58:59.144Z,19.20
2023-06-02T12:01:31.981Z,19.20
2023-06-02T12:04:08.532Z,19.30
2023-06-02T12:06:46.840Z,19.40
2023-06-02T12:09:17.801Z,19.50
2023-06-02T12:11:45.739Z,19.70
2023-06-02T12:14:12.687Z,19.70
2023-06-02T12:16:41.732Z,19.70
2023-06-02T12:19:22.235Z,19.60
2023-06-02T12:21:53.100Z,19.60
2023-06-02T12:24:39.618Z,19.60
2023-06-02T12:27:07.579Z,19.60
2023-06-02T12:29:35.439Z,19.70
2023-06-02T12:32:06.421Z,19.70
2023-06-02T12:34:34.265Z,19.80
2023-06-02T12:37:04.381Z,19.90
2023-06-02T12:39:31.368Z,19.90
2023-06-02T12:41:58.428Z,20.00
2023-06-02T12:44:26.108Z,20.10
2023-06-02T12:46:54.735Z,20.10
2023-06-02T12:49:21.587Z,20.20
2023-06-02T12:51:48.425Z,20.10
2023-06-02T12:54:15.412Z,20.00
2023-06-02T12:56:44.547Z,20.10
2023-06-02T12:59:13.904Z,20.10
2023-06-02T13:01:41.324Z,20.20
2023-06-02T13:04:08.641Z,20.30
2023-06-02T13:06:37.566Z,20.20
2023-06-02T13:09:04.644Z,20.30
2023-06-02T13:11:31.874Z,20.30
2023-06-02T13:13:59.741Z,20.30
2023-06-02T13:16:26.862Z,20.50
2023-06-02T13:18:54.212Z,20.50
2023-06-02T13:21:21.092Z,20.70
2023-06-02T13:23:55.297Z,20.80
2023-06-02T13:26:22.405Z,20.70
2023-06-02T13:28:49.393Z,20.70
2023-06-02T13:31:16.291Z,20.90
2023-06-02T13:33:43.109Z,20.90
2023-06-02T13:36:10.074Z,20.90
2023-06-02T13:38:36.937Z,21.00
2023-06-02T13:41:03.969Z,20.90
2023-06-02T13:43:30.997Z,20.90
2023-06-02T13:45:57.815Z,20.90
2023-06-02T13:48:24.646Z,20.90
2023-06-02T13:50:51.392Z,21.00
2023-06-02T13:53:18.254Z,21.00
2023-06-02T13:55:45.061Z,21.00
2023-06-02T13:58:11.903Z,21.00
2023-06-02T14:00:41.525Z,20.90
2023-06-02T14:03:08.895Z,20.90
2023-06-02T14:05:35.946Z,21.10
2023-06-02T14:08:03.372Z,21.10
2023-06-02T14:10:30.488Z,21.30
2023-06-02T14:12:57.317Z,21.30
2023-06-02T14:15:24.199Z,21.30
2023-06-02T14:17:51.751Z,21.40
2023-06-02T14:20:19.882Z,21.30
2023-06-02T14:22:46.890Z,21.40
2023-06-02T14:25:13.713Z,21.50
2023-06-02T14:27:41.103Z,21.50
2023-06-02T14:30:08.607Z,21.40
2023-06-02T14:32:35.495Z,21.60
2023-06-02T14:35:02.338Z,21.60
2023-06-02T14:37:29.157Z,21.60
2023-06-02T14:39:56.716Z,21.50
2023-06-02T14:42:23.582Z,21.60
2023-06-02T14:44:50.357Z,21.60
2023-06-02T14:47:17.497Z,21.60
2023-06-02T14:49:44.523Z,21.60
2023-06-02T14:52:11.275Z,21.60
2023-06-02T14:54:38.301Z,21.70
2023-06-02T14:57:06.191Z,21.80
2023-06-02T14:59:32.972Z,21.90
2023-06-02T15:01:59.731Z,21.90
2023-06-02T15:04:26.563Z,21.80
2023-06-02T15:06:53.398Z,22.00
2023-06-02T15:09:20.605Z,22.10
2023-06-02T15:11:47.436Z,22.10
2023-06-02T15:14:14.270Z,22.20
2023-06-02T15:16:41.168Z,22.20
2023-06-02T15:19:09.492Z,22.20
2023-06-02T15:21:37.181Z,22.20
2023-06-02T15:24:04.479Z,22.20
2023-06-02T15:26:31.442Z,22.20
2023-06-02T15:28:58.225Z,22.10
2023-06-02T15:31:25.130Z,22.10
2023-06-02T15:33:51.921Z,22.10
2023-06-02T15:36:20.437Z,22.00
2023-06-02T15:38:47.190Z,22.00
2023-06-02T15:41:13.989Z,22.00
2023-06-02T15:43:42.233Z,22.00
2023-06-02T15:46:09.475Z,21.90
2023-06-02T15:48:37.739Z,21.70
2023-06-02T15:51:05.944Z,21.60
2023-06-02T15:53:32.766Z,21.60
2023-06-02T15:55:59.536Z,21.50
2023-06-02T15:58:26.299Z,21.50
2023-06-02T16:00:53.114Z,21.40
2023-06-02T16:03:20.146Z,21.20
2023-06-02T16:05:46.952Z,21.00
2023-06-02T16:08:13.754Z,21.10
2023-06-02T16:10:41.106Z,21.10
2023-06-02T16:13:07.958Z,21.10
2023-06-02T16:15:35.151Z,21.20
2023-06-02T16:18:02.069Z,20.90
2023-06-02T16:20:29.018Z,21.00
2023-06-02T16:22:55.774Z,21.10
2023-06-02T16:25:24.935Z,20.90
2023-06-02T16:27:52.455Z,20.90
2023-06-02T16:30:19.383Z,20.80
2023-06-02T16:32:46.315Z,20.70
2023-06-02T16:35:13.168Z,20.70
2023-06-02T16:37:39.951Z,20.60
2023-06-02T16:40:07.634Z,20.70
2023-06-02T16:42:35.861Z,20.60
2023-06-02T16:45:03.149Z,20.60
2023-06-02T16:47:30.027Z,20.50
2023-06-02T16:49:56.859Z,20.40
2023-06-02T16:52:23.647Z,20.50
2023-06-02T16:54:53.502Z,20.40
2023-06-02T16:57:20.253Z,20.10
2023-06-02T16:59:47.309Z,20.30
2023-06-02T17:02:14.063Z,20.30
2023-06-02T17:04:40.836Z,20.10
2023-06-02T17:07:07.614Z,20.20
2023-06-02T17:09:34.394Z,20.20
2023-06-02T17:12:03.560Z,20.10
2023-06-02T17:14:30.458Z,19.90
2023-06-02T17:16:57.220Z,19.90
2023-06-02T17:19:24.746Z,19.90
2023-06-02T17:21:51.567Z,19.80
2023-06-02T17:24:18.582Z,19.90
2023-06-02T17:26:45.405Z,19.80
2023-06-02T17:29:14.829Z,19.80
2023-06-02T17:31:41.648Z,19.80
2023-06-02T17:34:09.806Z,19.60
2023-06-02T17:36:37.357Z,19.60
2023-06-02T17:39:04.287Z,19.60
2023-06-02T17:41:31.064Z,19.70
2023-06-02T17:43:57.841Z,19.60
2023-06-02T17:48:54.237Z,19.40
2023-06-02T17:51:23.652Z,19.40
2023-06-02T17:53:50.597Z,19.40
2023-06-02T17:56:17.401Z,19.20
2023-06-02T17:58:44.207Z,19.30
2023-06-02T18:01:11.320Z,19.20
2023-06-02T18:03:38.787Z,19.30
2023-06-02T18:06:06.454Z,19.30
2023-06-02T18:08:33.321Z,19.20
2023-06-02T18:11:00.249Z,19.20
2023-06-02T18:13:27.013Z,19.10
2023-06-02T18:15:53.843Z,19.10
2023-06-02T18:18:20.586Z,19.00
2023-06-02T18:20:47.327Z,18.90
2023-06-02T18:23:14.182Z,18.90
2023-06-02T18:25:41.093Z,18.90
2023-06-02T18:28:08.274Z,18.90
2023-06-02T18:30:35.001Z,18.80
2023-06-02T18:33:01.986Z,18.70
2023-06-02T18:35:29.520Z,18.80
2023-06-02T18:37:56.402Z,18.80
2023-06-02T18:40:23.306Z,18.70
2023-06-02T18:42:50.134Z,18.70
2023-06-02T18:45:16.989Z,18.60
2023-06-02T18:47:43.849Z,18.30
2023-06-02T18:50:11.611Z,18.50
2023-06-02T18:52:38.415Z,18.40
2023-06-02T18:55:05.651Z,18.40
2023-06-02T18:57:32.502Z,18.20
2023-06-02T18:59:59.380Z,18.20
2023-06-02T19:02:26.404Z,18.30
2023-06-02T19:04:53.272Z,18.20
2023-06-02T19:07:22.467Z,18.20
2023-06-02T19:09:50.644Z,18.10
2023-06-02T19:12:17.478Z,18.00
2023-06-02T19:14:44.288Z,18.00
2023-06-02T19:17:11.167Z,17.80
2023-06-02T19:19:38.015Z,17.80
2023-06-02T19:22:05.047Z,17.80
2023-06-02T19:24:31.855Z,17.70
2023-06-02T19:26:59.711Z,17.70
2023-06-02T19:29:26.912Z,17.60
2023-06-02T19:31:56.386Z,17.70
2023-06-02T19:34:23.385Z,17.70
2023-06-02T19:36:50.796Z,17.50
2023-06-02T19:39:17.658Z,17.60
2023-06-02T19:41:44.683Z,17.50
2023-06-02T19:44:11.712Z,17.50
2023-06-02T19:46:39.869Z,17.50
2023-06-02T19:49:08.196Z,17.40
2023-06-02T19:51:35.167Z,17.20
2023-06-02T19:54:02.211Z,17.30
2023-06-02T19:56:29.788Z,17.30
2023-06-02T19:58:56.588Z,17.20
2023-06-02T20:01:23.414Z,17.10
2023-06-02T20:03:50.535Z,17.00
2023-06-02T20:06:18.731Z,17.20
2023-06-02T20:08:45.995Z,17.20
2023-06-02T20:11:13.171Z,17.20
2023-06-02T20:13:40.162Z,17.00
2023-06-02T20:16:07.231Z,17.00
2023-06-02T20:18:34.060Z,17.00
2023-06-02T20:21:00.818Z,16.90
2023-06-02T20:23:27.603Z,17.00
2023-06-02T20:25:54.383Z,17.00
2023-06-02T20:28:21.285Z,17.00
2023-06-02T20:30:48.480Z,16.90
2023-06-02T20:33:15.703Z,16.90
2023-06-02T20:35:42.638Z,16.90
2023-06-02T20:38:09.466Z,16.80
2023-06-02T20:40:36.416Z,16.70
2023-06-02T20:43:03.454Z,16.80
2023-06-02T20:45:30.516Z,16.60
2023-06-02T20:47:57.405Z,16.50
2023-06-02T20:50:24.288Z,16.60
2023-06-02T20:52:51.394Z,16.50
2023-06-02T20:55:18.146Z,16.50
2023-06-02T20:57:44.927Z,16.70
2023-06-02T21:00:12.081Z,16.70
2023-06-02T21:02:39.003Z,16.70
2023-06-02T21:05:06.301Z,16.60
2023-06-02T21:07:33.283Z,16.60
2023-06-02T21:10:00.185Z,16.50
2023-06-02T21:12:27.101Z,16.40
2023-06-02T21:14:53.903Z,16.50
2023-06-02T21:17:20.718Z,16.60
2023-06-02T21:19:48.786Z,16.40
2023-06-02T21:22:15.706Z,16.40
2023-06-02T21:24:42.472Z,16.40
2023-06-02T21:27:09.325Z,16.50
2023-06-02T21:29:36.162Z,16.30
2023-06-02T21:32:03.069Z,16.10
2023-06-02T21:34:30.540Z,16.10
2023-06-02T21:36:57.339Z,16.10
2023-06-02T21:39:24.128Z,16.00
2023-06-02T21:41:50.952Z,16.00
2023-06-02T21:44:17.757Z,16.00
2023-06-02T21:46:44.636Z,15.90
2023-06-02T21:49:57.754Z,15.90
2023-06-02T21:52:25.156Z,16.00
2023-06-02T21:54:52.004Z,16.20
2023-06-02T21:57:18.867Z,15.90
2023-06-02T21:59:45.903Z,16.10
2023-06-02T22:02:12.829Z,16.10
2023-06-02T22:04:39.851Z,16.00
2023-06-02T22:07:06.894Z,16.00
2023-06-02T22:09:33.898Z,15.80
2023-06-02T22:12:00.758Z,15.70
2023-06-02T22:14:27.653Z,15.70
2023-06-02T22:16:54.588Z,15.70
2023-06-02T22:19:21.867Z,15.70
2023-06-02T22:24:27.937Z,15.70
2023-06-02T22:26:56.327Z,15.80
2023-06-02T22:29:23.346Z,15.70
2023-06-02T22:31:50.564Z,15.50
2023-06-02T22:34:18.094Z,15.40
2023-06-02T22:36:45.224Z,15.50
2023-06-02T22:39:12.142Z,15.50
2023-06-02T22:41:39.093Z,15.30
2023-06-02T22:44:05.965Z,15.40
2023-06-02T22:46:32.814Z,15.30
2023-06-02T22:48:59.691Z,15.40
2023-06-02T22:51:26.623Z,15.20
2023-06-02T22:53:53.443Z,15.20
2023-06-02T22:56:21.031Z,15.10
2023-06-02T22:58:48.106Z,15.20
2023-06-02T23:01:15.618Z,15.10
2023-06-02T23:03:42.625Z,15.20
2023-06-02T23:06:09.657Z,15.20
2023-06-02T23:08:37.134Z,15.20
2023-06-02T23:11:04.387Z,15.20
2023-06-02T23:13:31.574Z,15.20
2023-06-02T23:15:58.547Z,15.10
2023-06-02T23:18:25.474Z,15.00
2023-06-02T23:20:52.420Z,15.10
2023-06-02T23:23:19.533Z,15.00
2023-06-02T23:25:46.717Z,14.90
2023-06-02T23:28:13.963Z,15.00
2023-06-02T23:30:41.055Z,15.00
2023-06-02T23:33:08.569Z,15.00
2023-06-02T23:35:35.801Z,15.20
2023-06-02T23:38:02.803Z,15.10
2023-06-02T23:40:29.778Z,14.80
2023-06-02T23:43:07.349Z,14.90
2023-06-02T23:45:34.566Z,15.00
2023-06-02T23:48:04.722Z,14.90
2023-06-02T23:50:31.766Z,14.90
2023-06-02T23:52:58.661Z,14.90
2023-06-02T23:55:26.441Z,14.90
2023-06-02T23:57:53.436Z,14.90
